Aérodrome :
LOGIN :

S'inscrire | Disclaimer

   EN    FR    IT 

 










Légende :    VFR   VFR Marginal   IFR   IFR Intensif   IFR Très Intensif
Visi : 
Plafond : 
>= 8 km
>= 3000ft
5 à 8 km
1000 à 3000 ft
1500m à 5 km
500 à 1000 ft
800 à 1500m
200 à 500 ft
< 800m
< 200 ft
Symboles :   Orages  Brouillard  Fortes neiges  Fortes précipitations  Vent > 20 kt
SIGMETs :   Divers  Orages  Givrage  Turbulence  Onde Orograph.  Cendres Volcan.






- Altitude de l'aérodrome : 288 ft
- Code IATA : BZZ


EGVN - RAF Brize Norton

DERNIER METAR :
  • 211020Z 27002KT 9999 3000S BR FEW023 01/00 Q1043 BECMG 9999 NSW RMK YLO1 BECMG BLU

METARs EXPIRÉS :
  • 210950Z 27003KT 8000 3000S BR BKN023 M00/M00 Q1043 BECMG 9999 NSW RMK YLO1 BECMG WHT
  • 210920Z 20003KT 5000 3000S BR BKN023 M01/M01 Q1043 BECMG 9999 NSW
  • 210850Z 21003KT 6000 2500S BR BKN022 M00/M01 Q1042 BECMG 9999 NSW RMK YLO1 BECMG WHT
  • 210820Z 25002KT 4500 BR BKN020 M01/M01 Q1042 BECMG 5000 HZ RMK GRN BECMG WHT
  • 210750Z 27002KT 4500 BR BKN020 M02/M02 Q1042 BECMG 5000 HZ RMK GRN BECMG WHT

TAF TAF EGVN
Valide du 21 à 09h jusqu'au 22 à 09h UTC


210755Z 2109/2209 VRB03KT 5000 BR BKN020
PROB30 2109/2111 1200 SCT002
BECMG 2111/2113 9999 NSW FEW020
BECMG 2117/2120 BKN015
PROB40 2121/2124 3000 BR BKN004
BECMG 2200/2202 2500 BR BKN004
PROB30 2202/2209 0700 FG BKN001



MET'MAP, la Météo Aéronautique d'un coup d'oeil ! - Copyright ORBIFLY Décembre 2007 - Disclaimer

ORBIFLY MET'MAP TEAM :

Programmation & Développement : Alexandra Zaïnal
Sur une idée originale de : Baudouin d'Aumeries
Assistance à la programmation : Marc-Olivier Méhu
Soutien technique & logistique : Manuel Goepfert

Contact : metmap@orbifly.com




SOURCES & CREDITS :

   NOAA